KMTO/MTO METAR and TAF weather

Enter ICAO airport designator
Station Type Date Time Source
KMTO METAR 2019/06/16 20:53 UTC NOAA

KMTO 162053Z AUTO 32006KT 10SM FEW095 27/21 A2982 RMK AO2 SLP093 T02720211 58007


Station Type Date Time Source
KMTO Decoded METAR 2019/06/16 20:53 UTC NOAA

MATTOON/CHARLESTON COLES CO, IL, United States (KMTO) 39-28N 88-16W 214M
Jun 16, 2019 - 04:53 PM EDT / 2019.06.16 2053 UTC
Wind: from the NW (320 degrees) at 7 MPH (6 KT):0
Visibility: 10 mile(s):0
Sky conditions: mostly clear
Temperature: 81.0 F (27.2 C)
Dew Point: 70.0 F (21.1 C)
Relative Humidity: 69%
Pressure (altimeter): 29.82 in. Hg (1009 hPa)
Pressure tendency: 0.02 inches (0.7 hPa) lower than three hours ago
ob: KMTO 162053Z AUTO 32006KT 10SM FEW095 27/21 A2982 RMK AO2 SLP093 T02720211 58007
cycle: 21

Station Type Date Time Source
KMTO TAF UTC NOAA

Error!

Example: see airport list